sensor_id;sensor_type;location;lat;lon;timestamp;P1;durP1;ratioP1;P2;durP2;ratioP2
30335;SDS011;17142;47.990;7.846;2022-10-19T07:27:29;9.37;;;7.37;;
30335;SDS011;17142;47.990;7.846;2022-10-19T07:29:55;11.03;;;7.77;;
30335;SDS011;17142;47.990;7.846;2022-10-19T07:32:24;11.73;;;8.07;;
30335;SDS011;17142;47.990;7.846;2022-10-19T07:34:52;11.90;;;7.00;;
30335;SDS011;17142;47.990;7.846;2022-10-19T07:37:17;12.03;;;8.30;;
30335;SDS011;17142;47.990;7.846;2022-10-19T07:39:45;11.70;;;8.90;;
30335;SDS011;17142;47.990;7.846;2022-10-19T07:42:11;12.83;;;8.43;;
30335;SDS011;17142;47.990;7.846;2022-10-19T07:44:39;10.10;;;7.53;;
30335;SDS011;17142;47.990;7.846;2022-10-19T07:47:07;9.70;;;6.50;;
30335;SDS011;17142;47.990;7.846;2022-10-19T07:49:33;14.17;;;8.97;;
30335;SDS011;17142;47.990;7.846;2022-10-19T07:51:58;9.60;;;8.17;;
30335;SDS011;17142;47.990;7.846;2022-10-19T07:54:24;13.83;;;9.43;;
30335;SDS011;17142;47.990;7.846;2022-10-19T07:56:51;11.53;;;7.63;;
30335;SDS011;17142;47.990;7.846;2022-10-19T07:59:19;11.37;;;8.17;;
30335;SDS011;17142;47.990;7.846;2022-10-19T08:01:47;11.20;;;7.70;;
30335;SDS011;17142;47.990;7.846;2022-10-19T08:04:14;10.17;;;7.80;;
30335;SDS011;17142;47.990;7.846;2022-10-19T08:06:40;10.80;;;8.67;;
30335;SDS011;17142;47.990;7.846;2022-10-19T08:09:08;12.73;;;9.20;;
30335;SDS011;17142;47.990;7.846;2022-10-19T08:11:34;11.70;;;9.00;;
30335;SDS011;17142;47.990;7.846;2022-10-19T08:14:00;10.80;;;7.80;;
30335;SDS011;17142;47.990;7.846;2022-10-19T08:18:58;10.70;;;8.50;;
30335;SDS011;17142;47.990;7.846;2022-10-19T08:21:28;8.97;;;6.10;;
30335;SDS011;17142;47.990;7.846;2022-10-19T08:23:57;8.70;;;6.43;;
30335;SDS011;17142;47.990;7.846;2022-10-19T08:26:26;7.47;;;6.00;;
30335;SDS011;17142;47.990;7.846;2022-10-19T08:28:57;9.20;;;6.43;;
30335;SDS011;17142;47.990;7.846;2022-10-19T08:31:26;9.87;;;7.10;;
30335;SDS011;17142;47.990;7.846;2022-10-19T08:33:51;7.20;;;5.47;;
30335;SDS011;17142;47.990;7.846;2022-10-19T08:36:17;10.10;;;6.57;;
30335;SDS011;17142;47.990;7.846;2022-10-19T08:38:48;13.30;;;6.83;;
30335;SDS011;17142;47.990;7.846;2022-10-19T08:41:22;8.83;;;5.60;;
30335;SDS011;17142;47.990;7.846;2022-10-19T08:44:22;9.83;;;7.03;;
30335;SDS011;17142;47.990;7.846;2022-10-19T08:47:23;8.50;;;7.03;;
30335;SDS011;17142;47.990;7.846;2022-10-19T08:49:54;11.17;;;8.20;;
30335;SDS011;17142;47.990;7.846;2022-10-19T08:52:23;9.17;;;6.73;;
30335;SDS011;17142;47.990;7.846;2022-10-19T08:54:56;8.60;;;7.47;;
30335;SDS011;17142;47.990;7.846;2022-10-19T09:08:26;12.17;;;6.20;;
30335;SDS011;17142;47.990;7.846;2022-10-19T09:10:52;14.00;;;7.07;;
30335;SDS011;17142;47.990;7.846;2022-10-19T09:16:04;11.73;;;6.53;;
30335;SDS011;17142;47.990;7.846;2022-10-19T09:18:31;12.47;;;8.17;;
30335;SDS011;17142;47.990;7.846;2022-10-19T09:21:00;11.50;;;7.37;;
30335;SDS011;17142;47.990;7.846;2022-10-19T09:26:49;10.20;;;7.10;;
30335;SDS011;17142;47.990;7.846;2022-10-19T09:29:21;10.40;;;7.70;;
30335;SDS011;17142;47.990;7.846;2022-10-19T09:32:02;9.17;;;7.90;;
30335;SDS011;17142;47.990;7.846;2022-10-19T09:34:46;7.70;;;6.53;;
30335;SDS011;17142;47.990;7.846;2022-10-19T09:37:21;10.03;;;6.70;;
30335;SDS011;17142;47.990;7.846;2022-10-19T09:39:49;6.00;;;5.40;;
30335;SDS011;17142;47.990;7.846;2022-10-19T09:44:53;8.17;;;6.70;;
30335;SDS011;17142;47.990;7.846;2022-10-19T09:53:03;7.00;;;6.30;;
30335;SDS011;17142;47.990;7.846;2022-10-19T09:55:41;8.30;;;6.40;;
30335;SDS011;17142;47.990;7.846;2022-10-19T10:00:41;8.50;;;6.77;;
30335;SDS011;17142;47.990;7.846;2022-10-19T10:05:48;9.60;;;7.03;;
30335;SDS011;17142;47.990;7.846;2022-10-19T10:08:16;9.20;;;6.80;;
30335;SDS011;17142;47.990;7.846;2022-10-19T10:10:52;9.13;;;5.70;;
30335;SDS011;17142;47.990;7.846;2022-10-19T10:13:25;5.37;;;4.60;;
30335;SDS011;17142;47.990;7.846;2022-10-19T10:15:55;7.97;;;6.97;;
30335;SDS011;17142;47.990;7.846;2022-10-19T10:18:24;9.87;;;7.93;;
30335;SDS011;17142;47.990;7.846;2022-10-19T10:21:02;9.33;;;6.97;;
30335;SDS011;17142;47.990;7.846;2022-10-19T10:23:43;11.73;;;7.80;;
30335;SDS011;17142;47.990;7.846;2022-10-19T10:26:23;8.23;;;6.20;;
30335;SDS011;17142;47.990;7.846;2022-10-19T10:28:50;8.60;;;6.73;;
30335;SDS011;17142;47.990;7.846;2022-10-19T10:31:18;12.90;;;7.83;;
30335;SDS011;17142;47.990;7.846;2022-10-19T10:34:10;10.97;;;8.70;;
30335;SDS011;17142;47.990;7.846;2022-10-19T10:36:42;8.83;;;6.60;;
30335;SDS011;17142;47.990;7.846;2022-10-19T10:39:11;12.40;;;8.50;;
30335;SDS011;17142;47.990;7.846;2022-10-19T10:41:42;12.10;;;8.87;;
30335;SDS011;17142;47.990;7.846;2022-10-19T10:44:15;11.80;;;7.53;;
30335;SDS011;17142;47.990;7.846;2022-10-19T10:46:49;14.43;;;8.50;;
30335;SDS011;17142;47.990;7.846;2022-10-19T10:49:22;11.80;;;7.63;;
30335;SDS011;17142;47.990;7.846;2022-10-19T10:52:04;14.37;;;9.17;;
30335;SDS011;17142;47.990;7.846;2022-10-19T10:54:36;11.27;;;7.90;;
30335;SDS011;17142;47.990;7.846;2022-10-19T10:57:12;9.23;;;6.80;;
30335;SDS011;17142;47.990;7.846;2022-10-19T11:07:44;14.07;;;9.20;;
30335;SDS011;17142;47.990;7.846;2022-10-19T11:10:20;12.40;;;9.93;;
30335;SDS011;17142;47.990;7.846;2022-10-19T11:12:48;11.60;;;8.90;;
30335;SDS011;17142;47.990;7.846;2022-10-19T11:15:38;14.83;;;10.30;;
30335;SDS011;17142;47.990;7.846;2022-10-19T11:18:16;13.23;;;8.70;;
30335;SDS011;17142;47.990;7.846;2022-10-19T11:21:10;11.17;;;9.97;;
30335;SDS011;17142;47.990;7.846;2022-10-19T11:31:52;12.37;;;7.60;;
30335;SDS011;17142;47.990;7.846;2022-10-19T11:37:21;10.97;;;8.57;;
30335;SDS011;17142;47.990;7.846;2022-10-19T11:45:26;12.93;;;10.77;;
30335;SDS011;17142;47.990;7.846;2022-10-19T11:56:25;12.60;;;9.33;;
30335;SDS011;17142;47.990;7.846;2022-10-19T12:12:45;12.23;;;9.03;;
30335;SDS011;17142;47.990;7.846;2022-10-19T12:15:33;12.30;;;9.60;;
30335;SDS011;17142;47.990;7.846;2022-10-19T12:21:08;14.40;;;10.43;;
30335;SDS011;17142;47.990;7.846;2022-10-19T12:23:38;13.00;;;9.50;;
30335;SDS011;17142;47.990;7.846;2022-10-19T12:26:13;12.73;;;9.43;;
30335;SDS011;17142;47.990;7.846;2022-10-19T12:28:48;17.67;;;11.93;;
30335;SDS011;17142;47.990;7.846;2022-10-19T12:31:18;15.70;;;11.47;;
30335;SDS011;17142;47.990;7.846;2022-10-19T12:45:17;14.07;;;10.10;;
30335;SDS011;17142;47.990;7.846;2022-10-19T13:01:06;14.33;;;9.90;;
30335;SDS011;17142;47.990;7.846;2022-10-19T13:03:42;14.00;;;9.40;;
30335;SDS011;17142;47.990;7.846;2022-10-19T13:06:18;11.73;;;9.50;;
30335;SDS011;17142;47.990;7.846;2022-10-19T13:08:57;18.30;;;12.00;;
30335;SDS011;17142;47.990;7.846;2022-10-19T13:11:28;15.60;;;12.40;;
30335;SDS011;17142;47.990;7.846;2022-10-19T13:16:39;18.30;;;12.40;;
30335;SDS011;17142;47.990;7.846;2022-10-19T13:19:21;18.33;;;11.10;;
30335;SDS011;17142;47.990;7.846;2022-10-19T13:38:41;18.00;;;11.10;;
30335;SDS011;17142;47.990;7.846;2022-10-19T13:43:25;13.93;;;10.10;;
30335;SDS011;17142;47.990;7.846;2022-10-19T14:05:30;12.37;;;9.67;;
30335;SDS011;17142;47.990;7.846;2022-10-19T14:10:40;15.37;;;10.57;;
30335;SDS011;17142;47.990;7.846;2022-10-19T14:13:10;15.40;;;11.67;;
30335;SDS011;17142;47.990;7.846;2022-10-19T14:15:51;16.40;;;11.60;;
30335;SDS011;17142;47.990;7.846;2022-10-19T14:18:26;13.67;;;12.03;;
30335;SDS011;17142;47.990;7.846;2022-10-19T14:20:58;17.10;;;12.77;;
30335;SDS011;17142;47.990;7.846;2022-10-19T14:25:56;16.53;;;10.37;;
30335;SDS011;17142;47.990;7.846;2022-10-19T14:28:24;15.30;;;11.13;;
30335;SDS011;17142;47.990;7.846;2022-10-19T14:30:55;16.13;;;10.40;;
30335;SDS011;17142;47.990;7.846;2022-10-19T14:33:27;17.07;;;10.93;;
30335;SDS011;17142;47.990;7.846;2022-10-19T14:35:56;23.77;;;14.97;;
30335;SDS011;17142;47.990;7.846;2022-10-19T14:38:27;14.97;;;12.20;;
30335;SDS011;17142;47.990;7.846;2022-10-19T14:40:57;15.07;;;10.40;;
30335;SDS011;17142;47.990;7.846;2022-10-19T14:43:26;17.90;;;13.17;;
30335;SDS011;17142;47.990;7.846;2022-10-19T14:46:07;17.43;;;9.93;;
30335;SDS011;17142;47.990;7.846;2022-10-19T14:48:34;10.30;;;8.47;;
30335;SDS011;17142;47.990;7.846;2022-10-19T14:51:02;14.53;;;9.93;;
30335;SDS011;17142;47.990;7.846;2022-10-19T14:59:01;17.33;;;12.63;;
30335;SDS011;17142;47.990;7.846;2022-10-19T15:01:51;13.40;;;9.47;;
30335;SDS011;17142;47.990;7.846;2022-10-19T15:04:28;14.27;;;8.77;;
30335;SDS011;17142;47.990;7.846;2022-10-19T15:07:00;17.90;;;12.30;;
30335;SDS011;17142;47.990;7.846;2022-10-19T15:09:38;8.90;;;7.30;;
30335;SDS011;17142;47.990;7.846;2022-10-19T15:12:16;13.53;;;10.20;;
30335;SDS011;17142;47.990;7.846;2022-10-19T15:14:45;15.37;;;10.80;;
30335;SDS011;17142;47.990;7.846;2022-10-19T15:20:00;10.47;;;8.03;;
30335;SDS011;17142;47.990;7.846;2022-10-19T15:27:39;12.43;;;10.57;;
30335;SDS011;17142;47.990;7.846;2022-10-19T15:33:12;12.67;;;10.60;;
30335;SDS011;17142;47.990;7.846;2022-10-19T15:35:38;11.80;;;9.63;;
30335;SDS011;17142;47.990;7.846;2022-10-19T15:40:47;11.77;;;9.03;;
30335;SDS011;17142;47.990;7.846;2022-10-19T15:44:28;13.23;;;11.83;;
30335;SDS011;17142;47.990;7.846;2022-10-19T15:49:24;16.30;;;12.10;;
30335;SDS011;17142;47.990;7.846;2022-10-19T15:51:45;17.40;;;11.30;;
30335;SDS011;17142;47.990;7.846;2022-10-19T15:54:15;16.07;;;13.00;;
30335;SDS011;17142;47.990;7.846;2022-10-19T15:56:44;12.50;;;10.00;;
30335;SDS011;17142;47.990;7.846;2022-10-19T15:59:12;14.17;;;11.00;;
30335;SDS011;17142;47.990;7.846;2022-10-19T16:01:40;15.10;;;9.33;;
30335;SDS011;17142;47.990;7.846;2022-10-19T16:04:07;15.50;;;11.87;;
30335;SDS011;17142;47.990;7.846;2022-10-19T16:06:36;14.70;;;9.83;;
30335;SDS011;17142;47.990;7.846;2022-10-19T16:09:04;13.17;;;9.80;;
30335;SDS011;17142;47.990;7.846;2022-10-19T16:11:31;21.37;;;12.63;;
30335;SDS011;17142;47.990;7.846;2022-10-19T16:14:00;14.17;;;9.90;;
30335;SDS011;17142;47.990;7.846;2022-10-19T16:16:31;14.70;;;10.90;;
30335;SDS011;17142;47.990;7.846;2022-10-19T16:18:57;16.70;;;11.00;;
30335;SDS011;17142;47.990;7.846;2022-10-19T16:21:26;17.43;;;13.37;;
30335;SDS011;17142;47.990;7.846;2022-10-19T16:23:56;17.13;;;12.10;;
30335;SDS011;17142;47.990;7.846;2022-10-19T16:26:22;19.27;;;13.53;;
30335;SDS011;17142;47.990;7.846;2022-10-19T16:28:50;14.90;;;10.70;;
30335;SDS011;17142;47.990;7.846;2022-10-19T16:31:16;18.73;;;12.83;;
30335;SDS011;17142;47.990;7.846;2022-10-19T16:33:43;18.20;;;12.03;;
30335;SDS011;17142;47.990;7.846;2022-10-19T16:36:08;14.87;;;11.20;;
30335;SDS011;17142;47.990;7.846;2022-10-19T16:38:34;14.87;;;10.27;;
30335;SDS011;17142;47.990;7.846;2022-10-19T16:41:01;14.87;;;10.30;;
30335;SDS011;17142;47.990;7.846;2022-10-19T16:43:28;14.20;;;10.40;;
30335;SDS011;17142;47.990;7.846;2022-10-19T16:45:56;19.13;;;12.90;;
30335;SDS011;17142;47.990;7.846;2022-10-19T16:48:24;24.03;;;16.30;;
30335;SDS011;17142;47.990;7.846;2022-10-19T16:51:36;17.30;;;12.70;;
30335;SDS011;17142;47.990;7.846;2022-10-19T16:53:42;19.73;;;12.17;;
30335;SDS011;17142;47.990;7.846;2022-10-19T16:56:12;22.17;;;12.20;;
30335;SDS011;17142;47.990;7.846;2022-10-19T16:58:40;19.40;;;11.90;;
30335;SDS011;17142;47.990;7.846;2022-10-19T17:01:06;16.50;;;11.80;;
30335;SDS011;17142;47.990;7.846;2022-10-19T17:03:52;16.50;;;11.23;;
30335;SDS011;17142;47.990;7.846;2022-10-19T17:06:20;13.87;;;11.40;;
30335;SDS011;17142;47.990;7.846;2022-10-19T17:08:46;15.70;;;11.43;;
30335;SDS011;17142;47.990;7.846;2022-10-19T17:11:13;15.87;;;12.00;;
30335;SDS011;17142;47.990;7.846;2022-10-19T17:13:47;16.93;;;13.03;;
30335;SDS011;17142;47.990;7.846;2022-10-19T17:16:17;16.33;;;11.90;;
30335;SDS011;17142;47.990;7.846;2022-10-19T17:18:46;19.80;;;12.63;;
30335;SDS011;17142;47.990;7.846;2022-10-19T17:21:19;14.70;;;11.80;;
30335;SDS011;17142;47.990;7.846;2022-10-19T17:23:46;12.63;;;10.37;;
30335;SDS011;17142;47.990;7.846;2022-10-19T17:26:17;20.70;;;13.00;;
30335;SDS011;17142;47.990;7.846;2022-10-19T17:28:43;16.90;;;9.77;;
30335;SDS011;17142;47.990;7.846;2022-10-19T17:31:13;15.40;;;10.27;;
30335;SDS011;17142;47.990;7.846;2022-10-19T17:33:39;13.73;;;11.27;;
30335;SDS011;17142;47.990;7.846;2022-10-19T17:36:10;16.00;;;12.40;;
30335;SDS011;17142;47.990;7.846;2022-10-19T17:38:39;13.63;;;8.57;;
30335;SDS011;17142;47.990;7.846;2022-10-19T17:41:06;11.83;;;10.17;;
30335;SDS011;17142;47.990;7.846;2022-10-19T17:43:36;12.60;;;8.67;;
30335;SDS011;17142;47.990;7.846;2022-10-19T17:46:04;9.87;;;8.57;;
30335;SDS011;17142;47.990;7.846;2022-10-19T17:48:31;10.40;;;7.90;;
30335;SDS011;17142;47.990;7.846;2022-10-19T17:50:59;9.57;;;7.97;;
30335;SDS011;17142;47.990;7.846;2022-10-19T17:53:27;7.20;;;6.50;;
30335;SDS011;17142;47.990;7.846;2022-10-19T17:55:53;11.20;;;8.30;;
30335;SDS011;17142;47.990;7.846;2022-10-19T17:58:19;11.00;;;7.03;;
30335;SDS011;17142;47.990;7.846;2022-10-19T18:00:45;11.90;;;8.90;;
30335;SDS011;17142;47.990;7.846;2022-10-19T18:03:11;9.90;;;7.60;;
30335;SDS011;17142;47.990;7.846;2022-10-19T18:05:37;9.20;;;7.13;;
30335;SDS011;17142;47.990;7.846;2022-10-19T18:08:02;9.97;;;7.77;;
30335;SDS011;17142;47.990;7.846;2022-10-19T18:10:30;9.77;;;6.47;;
30335;SDS011;17142;47.990;7.846;2022-10-19T18:12:59;6.70;;;6.00;;
30335;SDS011;17142;47.990;7.846;2022-10-19T18:15:24;10.13;;;7.60;;
30335;SDS011;17142;47.990;7.846;2022-10-19T18:17:50;6.13;;;5.43;;
30335;SDS011;17142;47.990;7.846;2022-10-19T18:20:16;6.30;;;5.37;;
30335;SDS011;17142;47.990;7.846;2022-10-19T18:22:41;7.60;;;5.80;;
30335;SDS011;17142;47.990;7.846;2022-10-19T18:25:09;8.10;;;6.40;;
30335;SDS011;17142;47.990;7.846;2022-10-19T18:27:37;8.97;;;6.63;;
30335;SDS011;17142;47.990;7.846;2022-10-19T18:30:03;9.10;;;6.60;;
30335;SDS011;17142;47.990;7.846;2022-10-19T18:32:29;7.63;;;6.77;;
30335;SDS011;17142;47.990;7.846;2022-10-19T18:34:57;7.07;;;5.27;;
30335;SDS011;17142;47.990;7.846;2022-10-19T18:37:25;6.80;;;5.20;;
30335;SDS011;17142;47.990;7.846;2022-10-19T18:39:50;6.30;;;5.23;;
30335;SDS011;17142;47.990;7.846;2022-10-19T18:42:16;6.40;;;4.77;;
30335;SDS011;17142;47.990;7.846;2022-10-19T18:44:42;5.73;;;5.07;;
30335;SDS011;17142;47.990;7.846;2022-10-19T18:47:07;10.00;;;7.40;;
30335;SDS011;17142;47.990;7.846;2022-10-19T18:49:33;7.73;;;6.70;;
30335;SDS011;17142;47.990;7.846;2022-10-19T18:51:59;7.77;;;6.70;;
30335;SDS011;17142;47.990;7.846;2022-10-19T18:54:24;12.40;;;9.00;;
30335;SDS011;17142;47.990;7.846;2022-10-19T18:56:51;10.53;;;7.13;;
30335;SDS011;17142;47.990;7.846;2022-10-19T18:59:22;8.03;;;6.33;;
30335;SDS011;17142;47.990;7.846;2022-10-19T19:01:47;10.60;;;7.83;;
30335;SDS011;17142;47.990;7.846;2022-10-19T19:04:13;11.07;;;7.30;;
30335;SDS011;17142;47.990;7.846;2022-10-19T19:06:43;8.80;;;7.00;;
30335;SDS011;17142;47.990;7.846;2022-10-19T19:09:11;7.30;;;6.30;;
30335;SDS011;17142;47.990;7.846;2022-10-19T19:11:41;7.13;;;6.23;;
30335;SDS011;17142;47.990;7.846;2022-10-19T19:14:11;10.43;;;8.80;;
30335;SDS011;17142;47.990;7.846;2022-10-19T19:16:38;9.33;;;8.03;;
30335;SDS011;17142;47.990;7.846;2022-10-19T19:19:05;7.90;;;6.73;;
30335;SDS011;17142;47.990;7.846;2022-10-19T19:21:31;11.50;;;6.50;;
30335;SDS011;17142;47.990;7.846;2022-10-19T19:24:00;8.93;;;7.37;;
30335;SDS011;17142;47.990;7.846;2022-10-19T19:26:31;9.40;;;6.93;;
30335;SDS011;17142;47.990;7.846;2022-10-19T19:28:58;11.63;;;7.30;;
30335;SDS011;17142;47.990;7.846;2022-10-19T19:31:24;11.50;;;8.73;;
30335;SDS011;17142;47.990;7.846;2022-10-19T19:33:52;9.53;;;7.50;;
30335;SDS011;17142;47.990;7.846;2022-10-19T19:36:18;9.63;;;7.53;;
30335;SDS011;17142;47.990;7.846;2022-10-19T19:38:46;13.00;;;9.60;;
30335;SDS011;17142;47.990;7.846;2022-10-19T19:41:14;10.37;;;7.43;;
30335;SDS011;17142;47.990;7.846;2022-10-19T19:43:41;12.30;;;8.87;;
30335;SDS011;17142;47.990;7.846;2022-10-19T19:46:08;15.07;;;10.10;;
30335;SDS011;17142;47.990;7.846;2022-10-19T19:48:37;16.30;;;10.40;;
30335;SDS011;17142;47.990;7.846;2022-10-19T19:51:15;11.10;;;8.93;;
30335;SDS011;17142;47.990;7.846;2022-10-19T19:53:42;20.10;;;8.30;;
30335;SDS011;17142;47.990;7.846;2022-10-19T19:56:09;9.53;;;6.97;;
30335;SDS011;17142;47.990;7.846;2022-10-19T19:58:36;9.67;;;6.53;;
30335;SDS011;17142;47.990;7.846;2022-10-19T20:01:12;8.57;;;7.33;;
30335;SDS011;17142;47.990;7.846;2022-10-19T20:03:37;10.50;;;8.20;;
30335;SDS011;17142;47.990;7.846;2022-10-19T20:06:03;18.37;;;12.00;;
30335;SDS011;17142;47.990;7.846;2022-10-19T20:08:30;17.70;;;13.13;;
30335;SDS011;17142;47.990;7.846;2022-10-19T20:10:59;17.90;;;13.77;;
30335;SDS011;17142;47.990;7.846;2022-10-19T20:13:29;16.63;;;12.20;;
30335;SDS011;17142;47.990;7.846;2022-10-19T20:15:58;14.30;;;11.13;;
30335;SDS011;17142;47.990;7.846;2022-10-19T20:18:26;19.40;;;12.70;;
30335;SDS011;17142;47.990;7.846;2022-10-19T20:20:53;19.23;;;13.50;;
30335;SDS011;17142;47.990;7.846;2022-10-19T20:23:19;18.07;;;13.87;;
30335;SDS011;17142;47.990;7.846;2022-10-19T20:25:47;22.57;;;13.40;;
30335;SDS011;17142;47.990;7.846;2022-10-19T20:28:12;23.40;;;14.10;;
30335;SDS011;17142;47.990;7.846;2022-10-19T20:30:41;21.70;;;14.20;;
30335;SDS011;17142;47.990;7.846;2022-10-19T20:33:08;21.90;;;14.50;;
30335;SDS011;17142;47.990;7.846;2022-10-19T20:35:35;24.50;;;17.93;;
30335;SDS011;17142;47.990;7.846;2022-10-19T20:38:03;24.90;;;16.03;;
30335;SDS011;17142;47.990;7.846;2022-10-19T20:40:29;23.50;;;14.90;;
30335;SDS011;17142;47.990;7.846;2022-10-19T20:42:56;22.23;;;13.53;;
30335;SDS011;17142;47.990;7.846;2022-10-19T20:45:22;18.30;;;12.73;;
30335;SDS011;17142;47.990;7.846;2022-10-19T20:47:48;21.03;;;13.10;;
30335;SDS011;17142;47.990;7.846;2022-10-19T20:50:16;20.10;;;12.47;;
30335;SDS011;17142;47.990;7.846;2022-10-19T20:52:41;21.87;;;14.33;;
30335;SDS011;17142;47.990;7.846;2022-10-19T20:55:07;19.33;;;13.40;;
